Keesler Air Force Base

Airport
ICAO code: 
KBIX
Summary
ICAO Region: 
NAM
Territory: 
Location: 
Biloxi, Mississippi,
Coordinates: 
Aerial View: 
30° 24' 41.266" N, 88° 55' 13.156" W
Metar
Observation
KBIX 020906Z AUTO 00000KT 4SM BR CLR 11/11 A3015 RMK AO2 VIS 3/8 RWY04 SLP213
Station
Keesler Air Force Base / Biloxi
Date/Time
2021-12-02 09:06:00
Wind direction
Wind speed
00 kts
Lowest cloud amount
n/a
Temperature
11°C
Dew point
11°C
Humidity
100%
Weather condition
mist

Description

Keesler Air Force Base is a United States Air Force installation located in Biloxi, a city in Harrison County, Mississippi.

Climatology

Humid “subtropical” climate (Köppen climate classification Cfa) - characterized by hot, humid summers and cool winters. Significant amounts of precipitation occur in all seasons in most areas. Winter rainfall (and sometimes snowfall) is associated with large storms that the westerlies steer from west to east. Most summer rainfall occurs during thunderstorms and occasional tropical storms (hurricanes).

Runways

Designator Length Width Surface Rops
3/21 2326 46 PEM No/No
Airport map: 
Aerial View: 

SKYbrary Partners:

Safety knowledge contributed by: